Time;durP1;ratioP1;P1;durP2;ratioP2;P2;SDS_P1;SDS_P2;PMS_P1;PMS_P2;Temp;Humidity;BMP_temperature;BMP_pressure;BME280_temperature;BME280_humidity;BME280_pressure;Samples;Min_cycle;Max_cycle;Signal;HPM_P1;HPM_P2
2023/09/12 00:01:32;;;;;;;28.73;22.85;;;21.40;99.90;;;;;;6244473;22;20109;-82
2023/09/12 00:03:58;;;;;;;35.38;29.05;;;21.40;99.90;;;;;;6245934;22;20015;-82
2023/09/12 00:06:24;;;;;;;37.38;29.70;;;21.40;99.90;;;;;;6273028;22;20011;-82
2023/09/12 00:08:51;;;;;;;39.92;29.35;;;21.30;99.90;;;;;;6245106;22;20089;-82
2023/09/12 00:11:16;;;;;;;27.40;21.40;;;21.20;99.90;;;;;;6273235;22;20011;-82
2023/09/12 00:13:42;;;;;;;34.65;27.48;;;21.10;99.90;;;;;;6246295;22;20078;-82
2023/09/12 00:16:10;;;;;;;35.17;28.27;;;21.10;99.90;;;;;;6244476;22;20023;-82
2023/09/12 00:18:37;;;;;;;39.33;31.40;;;21.10;99.90;;;;;;6272090;22;20443;-82
2023/09/12 00:21:03;;;;;;;29.73;23.17;;;21.10;99.90;;;;;;6272997;22;20007;-82
2023/09/12 00:23:29;;;;;;;31.73;23.58;;;21.10;99.90;;;;;;6273540;22;20050;-82
2023/09/12 00:25:56;;;;;;;29.85;24.58;;;21.00;99.90;;;;;;6245023;22;20020;-82
2023/09/12 00:28:22;;;;;;;40.08;30.25;;;21.00;99.90;;;;;;6245845;22;20016;-82
2023/09/12 00:30:47;;;;;;;41.33;31.42;;;21.10;99.90;;;;;;6272866;22;20023;-82
2023/09/12 00:33:13;;;;;;;41.97;28.73;;;21.00;99.90;;;;;;6245869;22;20093;-82
2023/09/12 00:35:39;;;;;;;30.65;24.52;;;21.10;99.90;;;;;;6246373;22;20058;-82
2023/09/12 00:38:06;;;;;;;32.22;24.55;;;21.00;99.90;;;;;;6272642;22;20083;-82
2023/09/12 00:40:32;;;;;;;31.52;25.40;;;21.10;99.90;;;;;;6246156;22;20019;-82
2023/09/12 00:42:58;;;;;;;31.75;25.45;;;21.10;99.90;;;;;;6219469;22;20019;-81
2023/09/12 00:45:25;;;;;;;36.58;28.70;;;21.10;99.90;;;;;;6219411;22;20061;-81
2023/09/12 00:47:53;;;;;;;33.38;25.92;;;21.00;99.90;;;;;;6272930;22;20094;-82
2023/09/12 00:50:22;;;;;;;34.75;28.05;;;21.00;99.90;;;;;;6245579;22;20404;-82
2023/09/12 00:52:48;;;;;;;29.98;23.40;;;21.00;99.90;;;;;;6245942;22;20082;-81
2023/09/12 00:55:14;;;;;;;40.95;31.50;;;20.90;99.90;;;;;;6245717;22;20047;-82
2023/09/12 00:57:41;;;;;;;37.25;28.35;;;20.90;99.90;;;;;;6245411;22;20063;-81
2023/09/12 01:00:12;;;;;;;41.25;31.83;;;20.90;99.90;;;;;;6272050;22;20015;-82
2023/09/12 01:02:40;;;;;;;35.20;26.75;;;20.90;99.90;;;;;;6273518;22;20011;-81
2023/09/12 01:05:07;;;;;;;30.48;24.98;;;20.90;99.90;;;;;;6244179;22;20069;-81
2023/09/12 01:07:33;;;;;;;31.45;25.60;;;20.90;99.90;;;;;;6273206;22;20018;-82
2023/09/12 01:09:59;;;;;;;40.78;33.47;;;20.80;99.90;;;;;;6244511;22;20019;-82
2023/09/12 01:12:25;;;;;;;39.33;32.67;;;20.80;99.90;;;;;;6271021;22;20368;-81
2023/09/12 01:14:51;;;;;;;32.08;25.45;;;20.70;99.90;;;;;;6244600;22;20020;-81
2023/09/12 01:17:17;;;;;;;35.53;27.85;;;20.60;99.90;;;;;;6244941;22;20012;-82
2023/09/12 01:19:43;;;;;;;29.20;23.05;;;20.60;99.90;;;;;;6245064;22;20016;-82
2023/09/12 01:22:18;;;;;;;33.03;26.95;;;20.60;99.90;;;;;;6272258;22;20058;-82
2023/09/12 01:24:49;;;;;;;29.98;24.30;;;20.60;99.90;;;;;;6218762;22;20020;-82
2023/09/12 01:27:28;;;;;;;42.35;31.20;;;20.60;99.90;;;;;;6272642;22;20023;-82
2023/09/12 01:29:59;;;;;;;37.33;28.52;;;20.60;99.90;;;;;;6271909;22;20014;-82
2023/09/12 01:32:26;;;;;;;31.40;25.52;;;20.60;99.90;;;;;;6245018;22;20099;-82
2023/09/12 01:34:52;;;;;;;26.35;20.90;;;20.50;99.90;;;;;;6271442;22;20065;-82
2023/09/12 01:37:17;;;;;;;40.13;30.98;;;20.50;99.90;;;;;;6272406;22;20078;-82
2023/09/12 01:39:43;;;;;;;44.53;31.80;;;20.50;99.90;;;;;;6244920;22;20016;-82
2023/09/12 01:42:13;;;;;;;32.00;25.25;;;20.50;99.90;;;;;;6244229;22;20446;-82
2023/09/12 01:44:40;;;;;;;39.78;32.90;;;20.50;99.90;;;;;;6272373;22;20008;-82
2023/09/12 01:47:06;;;;;;;41.05;31.40;;;20.40;99.90;;;;;;6271523;22;20046;-82
2023/09/12 01:49:33;;;;;;;33.97;25.98;;;20.40;99.90;;;;;;6271942;22;20102;-82
2023/09/12 01:51:59;;;;;;;40.45;30.45;;;20.30;99.90;;;;;;6271169;22;20008;-81
2023/09/12 01:54:27;;;;;;;34.78;26.55;;;20.30;99.90;;;;;;6245008;22;20477;-82
2023/09/12 01:56:57;;;;;;;31.33;24.67;;;20.30;99.90;;;;;;6244577;22;20465;-82
2023/09/12 01:59:24;;;;;;;36.67;28.20;;;20.30;99.90;;;;;;6244883;22;20081;-82
2023/09/12 02:01:50;;;;;;;38.17;30.35;;;20.30;99.90;;;;;;6271649;22;20043;-82
2023/09/12 02:04:16;;;;;;;38.65;29.88;;;20.30;99.90;;;;;;6272324;22;20026;-82
2023/09/12 02:06:42;;;;;;;37.53;30.80;;;20.30;99.90;;;;;;6245593;22;20016;-82
2023/09/12 02:09:07;;;;;;;39.38;30.83;;;20.30;99.90;;;;;;6245214;22;20022;-82
2023/09/12 02:11:33;;;;;;;35.53;28.92;;;20.30;99.90;;;;;;6271852;22;20335;-82
2023/09/12 02:13:59;;;;;;;40.78;30.48;;;20.30;99.90;;;;;;6271926;22;20012;-82
2023/09/12 02:16:24;;;;;;;39.22;32.05;;;20.30;99.90;;;;;;6245502;22;20008;-81
2023/09/12 02:18:50;;;;;;;37.63;29.10;;;20.30;99.90;;;;;;6272311;22;20047;-82
2023/09/12 02:21:16;;;;;;;35.03;28.38;;;20.20;99.90;;;;;;6244394;22;20026;-82
2023/09/12 02:23:42;;;;;;;44.33;32.38;;;20.20;99.90;;;;;;6272543;22;20015;-82
2023/09/12 02:26:08;;;;;;;34.13;26.75;;;20.20;99.90;;;;;;6272148;22;20079;-82
2023/09/12 02:28:33;;;;;;;44.42;32.83;;;20.20;99.90;;;;;;6245382;22;20050;-82
2023/09/12 02:30:59;;;;;;;38.88;30.17;;;20.10;99.90;;;;;;6244978;22;20065;-82
2023/09/12 02:33:24;;;;;;;43.65;33.97;;;20.10;99.90;;;;;;6244905;22;20012;-82
2023/09/12 02:35:50;;;;;;;45.60;32.75;;;20.10;99.90;;;;;;6244382;22;20023;-82
2023/09/12 02:38:17;;;;;;;46.10;33.05;;;20.00;99.90;;;;;;6272521;22;20024;-80
2023/09/12 02:40:43;;;;;;;39.40;31.33;;;20.00;99.90;;;;;;6272069;22;20008;-82
2023/09/12 02:43:09;;;;;;;42.90;33.38;;;19.90;99.90;;;;;;6245226;22;20012;-82
2023/09/12 02:45:35;;;;;;;44.40;33.38;;;19.90;99.90;;;;;;6245174;22;20022;-82
2023/09/12 02:48:01;;;;;;;45.50;35.80;;;19.80;99.90;;;;;;6244933;22;20095;-82
2023/09/12 02:50:26;;;;;;;32.28;24.90;;;19.90;99.90;;;;;;6272004;22;20039;-82
2023/09/12 02:52:52;;;;;;;43.40;32.50;;;19.90;99.90;;;;;;6271931;22;20008;-82
2023/09/12 02:55:18;;;;;;;32.20;25.60;;;19.90;99.90;;;;;;6272571;22;20087;-82
2023/09/12 02:57:44;;;;;;;39.10;29.45;;;19.90;99.90;;;;;;6272019;22;20008;-82
2023/09/12 03:00:11;;;;;;;38.45;30.35;;;20.00;99.90;;;;;;6271068;22;20510;-82
2023/09/12 03:02:36;;;;;;;43.00;32.80;;;20.00;99.90;;;;;;6243892;22;20020;-82
2023/09/12 03:05:02;;;;;;;41.83;30.88;;;20.00;99.90;;;;;;6243860;22;20090;-82
2023/09/12 03:07:30;;;;;;;46.28;34.58;;;20.00;99.90;;;;;;6244415;22;20022;-82
2023/09/12 03:09:55;;;;;;;47.08;34.45;;;20.00;99.90;;;;;;6271081;22;20016;-82
2023/09/12 03:12:21;;;;;;;35.95;27.95;;;20.00;99.90;;;;;;6270927;22;20419;-82
2023/09/12 03:14:47;;;;;;;46.13;33.03;;;20.00;99.90;;;;;;6271386;22;20004;-82
2023/09/12 03:17:12;;;;;;;35.78;28.25;;;20.00;99.90;;;;;;6218715;22;20004;-82
2023/09/12 03:19:38;;;;;;;43.47;34.28;;;19.90;99.90;;;;;;6244383;22;20088;-82
2023/09/12 03:22:04;;;;;;;43.80;31.73;;;19.90;99.90;;;;;;6271377;22;20426;-82
2023/09/12 03:24:29;;;;;;;43.13;31.65;;;19.80;99.90;;;;;;6271527;22;20003;-82
2023/09/12 03:26:55;;;;;;;51.40;35.58;;;19.70;99.90;;;;;;6244043;22;20095;-82
2023/09/12 03:29:21;;;;;;;54.05;37.30;;;19.70;99.90;;;;;;6272042;22;20088;-82
2023/09/12 03:31:46;;;;;;;51.17;36.80;;;19.60;99.90;;;;;;6271237;22;20007;-82
2023/09/12 03:34:12;;;;;;;51.85;35.00;;;19.60;99.90;;;;;;6244248;22;20316;-82
2023/09/12 03:36:37;;;;;;;40.97;30.95;;;19.60;99.90;;;;;;6244374;22;20396;-82
2023/09/12 03:39:05;;;;;;;40.22;30.83;;;19.60;99.90;;;;;;6243824;22;20015;-82
2023/09/12 03:41:31;;;;;;;46.65;35.47;;;19.60;99.90;;;;;;6271567;22;20433;-82
2023/09/12 03:43:57;;;;;;;35.33;27.58;;;19.60;99.90;;;;;;6272062;22;20027;-82
2023/09/12 03:46:22;;;;;;;37.92;29.58;;;19.60;99.90;;;;;;6244083;22;20026;-82
2023/09/12 03:48:48;;;;;;;37.50;29.05;;;19.60;99.90;;;;;;6271651;22;20087;-82
2023/09/12 03:51:14;;;;;;;38.88;30.45;;;19.60;99.90;;;;;;6244117;22;20011;-82
2023/09/12 03:53:40;;;;;;;44.97;33.63;;;19.60;99.90;;;;;;6270784;22;20027;-82
2023/09/12 03:56:06;;;;;;;39.42;28.63;;;19.60;99.90;;;;;;6243870;22;20022;-82
2023/09/12 03:58:32;;;;;;;34.65;27.50;;;19.60;99.90;;;;;;6244520;22;20012;-82
2023/09/12 04:00:57;;;;;;;47.47;35.38;;;19.60;99.90;;;;;;6243693;22;20501;-82
2023/09/12 04:03:23;;;;;;;46.95;35.95;;;19.60;99.90;;;;;;6271876;22;20019;-82
2023/09/12 04:05:50;;;;;;;40.15;30.13;;;19.60;99.90;;;;;;6271222;22;20077;-82
2023/09/12 04:08:16;;;;;;;40.47;30.23;;;19.50;99.90;;;;;;6271533;22;20016;-82
2023/09/12 04:10:42;;;;;;;42.60;33.50;;;19.60;99.90;;;;;;6244140;22;20402;-82
2023/09/12 04:13:08;;;;;;;33.17;26.30;;;19.50;99.90;;;;;;6243869;22;20390;-82
2023/09/12 04:15:33;;;;;;;38.40;29.27;;;19.50;99.90;;;;;;6244085;22;20044;-82
2023/09/12 04:17:59;;;;;;;37.60;29.67;;;19.50;99.90;;;;;;6243962;22;20043;-82
2023/09/12 04:20:25;;;;;;;37.95;29.90;;;19.50;99.90;;;;;;6243949;22;20462;-82
2023/09/12 04:22:51;;;;;;;43.88;34.05;;;19.50;99.90;;;;;;6270770;22;20011;-82
2023/09/12 04:25:19;;;;;;;49.28;35.15;;;19.40;99.90;;;;;;6271629;22;20021;-82
2023/09/12 04:27:45;;;;;;;107.90;34.20;;;19.40;99.90;;;;;;6270951;22;20086;-81
2023/09/12 04:30:11;;;;;;;79.00;31.83;;;19.40;99.90;;;;;;6244384;22;20047;-82
2023/09/12 04:32:37;;;;;;;69.93;32.78;;;19.30;99.90;;;;;;6244067;22;20012;-82
2023/09/12 04:35:03;;;;;;;126.95;31.38;;;19.30;99.90;;;;;;6218972;22;20521;-82
2023/09/12 04:37:29;;;;;;;152.00;30.52;;;19.20;99.90;;;;;;6270248;22;20019;-82
2023/09/12 04:39:54;;;;;;;115.88;34.45;;;19.20;99.90;;;;;;6243003;22;20011;-82
2023/09/12 04:42:20;;;;;;;119.72;35.08;;;19.20;99.90;;;;;;6243668;22;20026;-82
2023/09/12 04:44:46;;;;;;;42.22;29.00;;;19.10;99.90;;;;;;6242950;22;20458;-82
2023/09/12 04:47:12;;;;;;;44.03;26.60;;;19.10;99.90;;;;;;6238478;22;20348;-82
2023/09/12 04:49:39;;;;;;;56.05;31.05;;;19.00;99.90;;;;;;6238292;23;20047;-82
2023/09/12 04:52:05;;;;;;;43.33;33.28;;;19.00;99.90;;;;;;6236767;23;20022;-81
2023/09/12 04:54:31;;;;;;;39.38;29.67;;;19.00;99.90;;;;;;6238153;23;20055;-82
2023/09/12 04:56:57;;;;;;;36.03;28.98;;;18.90;99.90;;;;;;6240102;23;20459;-82
2023/09/12 04:59:23;;;;;;;36.00;26.17;;;18.90;99.90;;;;;;6239276;23;20087;-82
2023/09/12 05:01:48;;;;;;;36.85;26.60;;;18.90;99.90;;;;;;6238955;23;20012;-82
2023/09/12 05:04:14;;;;;;;33.92;28.33;;;18.90;99.90;;;;;;6239301;23;20020;-83
2023/09/12 05:06:40;;;;;;;51.72;28.42;;;18.80;99.90;;;;;;6239048;23;20168;-82
2023/09/12 05:09:08;;;;;;;36.40;26.25;;;18.80;99.90;;;;;;6238971;23;20095;-82
2023/09/12 05:11:34;;;;;;;24.27;18.48;;;18.90;99.90;;;;;;6240519;22;20048;-82
2023/09/12 05:14:03;;;;;;;32.15;22.48;;;18.80;99.90;;;;;;6240391;23;20087;-82
2023/09/12 05:16:29;;;;;;;34.90;27.20;;;18.90;99.90;;;;;;6214815;23;20091;-82
2023/09/12 05:18:54;;;;;;;51.35;33.63;;;18.80;99.90;;;;;;6238640;23;20016;-82
2023/09/12 05:21:20;;;;;;;44.40;28.50;;;18.90;99.90;;;;;;6240762;22;20077;-82
2023/09/12 05:23:46;;;;;;;63.85;29.25;;;19.00;99.90;;;;;;6238068;23;20491;-83
2023/09/12 05:26:12;;;;;;;46.38;32.17;;;18.90;99.90;;;;;;6239441;23;20016;-83
2023/09/12 05:28:38;;;;;;;84.65;36.58;;;19.00;99.90;;;;;;6238103;23;20094;-83
2023/09/12 05:31:03;;;;;;;29.33;22.25;;;19.00;99.90;;;;;;6239665;23;20180;-83
2023/09/12 05:33:29;;;;;;;105.90;33.67;;;19.10;99.90;;;;;;6238837;23;20081;-83
2023/09/12 05:35:55;;;;;;;38.83;27.10;;;19.00;99.90;;;;;;6238161;23;20074;-83
2023/09/12 05:38:20;;;;;;;58.17;36.00;;;19.00;99.90;;;;;;6239140;23;20459;-83
2023/09/12 05:40:49;;;;;;;75.43;35.00;;;19.00;99.90;;;;;;6240447;23;20086;-84
2023/09/12 05:43:15;;;;;;;60.00;36.58;;;19.10;99.90;;;;;;6238933;23;20078;-82
2023/09/12 05:45:41;;;;;;;79.00;34.47;;;19.10;99.90;;;;;;6243354;22;20020;-83
2023/09/12 05:48:07;;;;;;;109.30;35.78;;;19.10;99.90;;;;;;6242384;22;20018;-83
2023/09/12 05:50:33;;;;;;;47.67;30.35;;;19.00;99.90;;;;;;6243350;22;20343;-83
2023/09/12 05:52:58;;;;;;;51.97;35.25;;;19.00;99.90;;;;;;6243177;22;20019;-83
2023/09/12 05:55:24;;;;;;;51.90;33.92;;;19.00;99.90;;;;;;6244308;22;20035;-84
2023/09/12 05:57:53;;;;;;;63.08;40.20;;;19.00;99.90;;;;;;6244070;22;20023;-86
2023/09/12 06:00:19;;;;;;;63.85;39.30;;;19.00;99.90;;;;;;6271118;22;20007;-85
2023/09/12 06:02:46;;;;;;;46.55;32.10;;;19.00;99.90;;;;;;6242850;22;20018;-84
2023/09/12 06:05:11;;;;;;;59.33;38.88;;;19.10;99.90;;;;;;6242632;22;20288;-85
2023/09/12 06:07:39;;;;;;;66.47;41.17;;;19.10;99.90;;;;;;6243857;22;20016;-83
2023/09/12 06:10:05;;;;;;;56.30;33.08;;;19.10;99.90;;;;;;6243808;22;20019;-83
2023/09/12 06:12:32;;;;;;;90.93;41.42;;;19.10;99.90;;;;;;6244018;22;20016;-83
2023/09/12 06:14:58;;;;;;;57.10;36.97;;;19.20;99.90;;;;;;6270722;22;20047;-83
2023/09/12 06:17:24;;;;;;;49.45;32.60;;;19.20;99.90;;;;;;6243778;22;20016;-83
2023/09/12 06:19:50;;;;;;;61.38;39.35;;;19.20;99.90;;;;;;6270238;22;20773;-83
2023/09/12 06:22:17;;;;;;;75.60;42.03;;;19.20;99.90;;;;;;6242744;22;20051;-83
2023/09/12 06:24:43;;;;;;;74.15;40.45;;;19.20;99.90;;;;;;6271481;22;20020;-83
2023/09/12 06:27:10;;;;;;;52.13;34.60;;;19.20;99.90;;;;;;6243703;22;20076;-83
2023/09/12 06:29:35;;;;;;;51.70;33.33;;;19.20;99.90;;;;;;6244109;22;20054;-83
2023/09/12 06:32:02;;;;;;;53.10;36.33;;;19.20;99.90;;;;;;6241839;22;20020;-83
2023/09/12 06:34:27;;;;;;;71.78;44.10;;;19.20;99.90;;;;;;6266974;22;20008;-83
2023/09/12 06:36:53;;;;;;;61.83;39.28;;;19.20;99.90;;;;;;6269466;22;20481;-82
2023/09/12 06:39:19;;;;;;;51.83;34.72;;;19.20;99.90;;;;;;6270707;22;20320;-83
2023/09/12 06:41:45;;;;;;;62.28;40.35;;;19.20;99.90;;;;;;6270921;22;20012;-83
2023/09/12 06:44:10;;;;;;;56.90;38.53;;;19.20;99.90;;;;;;6270298;22;20190;-83
2023/09/12 06:46:37;;;;;;;82.88;42.90;;;19.20;99.90;;;;;;6242247;22;20422;-82
2023/09/12 06:49:03;;;;;;;66.78;41.67;;;19.20;99.90;;;;;;6242788;22;20016;-83
2023/09/12 06:51:29;;;;;;;54.38;36.85;;;19.20;99.90;;;;;;6243166;22;20016;-83
2023/09/12 06:53:55;;;;;;;54.67;37.03;;;19.20;99.90;;;;;;6242635;22;20142;-83
2023/09/12 06:56:21;;;;;;;84.65;39.92;;;19.20;99.90;;;;;;6269837;22;20022;-83
2023/09/12 06:58:47;;;;;;;109.30;38.08;;;19.30;99.90;;;;;;6242576;22;20378;-82
2023/09/12 07:01:13;;;;;;;96.55;32.95;;;19.30;99.90;;;;;;6216642;22;20015;-83
2023/09/12 07:03:39;;;;;;;73.93;37.45;;;19.30;99.90;;;;;;6269531;22;20058;-83
2023/09/12 07:06:05;;;;;;;56.03;34.33;;;19.30;99.90;;;;;;6242058;22;20024;-83
2023/09/12 07:08:31;;;;;;;44.35;30.42;;;19.30;99.90;;;;;;6243878;22;20034;-83
2023/09/12 07:10:58;;;;;;;53.10;34.53;;;19.30;99.90;;;;;;6242199;22;20016;-83
2023/09/12 07:13:24;;;;;;;57.00;37.15;;;19.40;99.90;;;;;;6269552;22;20090;-83
2023/09/12 07:15:53;;;;;;;57.20;36.05;;;19.50;99.90;;;;;;6242030;22;20016;-83
2023/09/12 07:18:20;;;;;;;67.65;37.85;;;19.50;99.90;;;;;;6269625;22;20089;-83
2023/09/12 07:20:45;;;;;;;80.75;37.80;;;19.40;99.90;;;;;;6243282;22;20431;-83
2023/09/12 07:23:12;;;;;;;49.78;32.67;;;19.40;99.90;;;;;;6242575;22;20023;-83
2023/09/12 07:25:41;;;;;;;70.40;38.88;;;19.40;99.90;;;;;;6271036;22;20015;-83
2023/09/12 07:28:08;;;;;;;56.72;36.45;;;19.30;99.90;;;;;;6242791;22;20348;-83
2023/09/12 07:30:33;;;;;;;62.58;37.03;;;19.30;99.90;;;;;;6242271;22;20015;-83
2023/09/12 07:32:59;;;;;;;58.90;36.72;;;19.20;99.90;;;;;;6241726;22;20046;-83
2023/09/12 07:35:24;;;;;;;58.28;35.90;;;19.20;99.90;;;;;;6241228;22;20100;-82
2023/09/12 07:37:50;;;;;;;49.58;31.33;;;19.20;99.90;;;;;;6242164;22;20051;-83
2023/09/12 07:40:16;;;;;;;54.28;37.53;;;19.20;99.90;;;;;;6242663;22;20102;-83
2023/09/12 07:42:43;;;;;;;55.33;37.08;;;19.10;99.90;;;;;;6243442;22;20391;-83
2023/09/12 07:45:09;;;;;;;51.83;36.17;;;19.10;99.90;;;;;;6269034;22;20033;-82
2023/09/12 07:47:35;;;;;;;54.08;35.65;;;19.10;99.90;;;;;;6243117;22;20475;-83
2023/09/12 07:50:01;;;;;;;52.17;35.05;;;19.20;99.90;;;;;;6217258;22;20012;-82
2023/09/12 07:52:28;;;;;;;53.75;36.90;;;19.20;99.90;;;;;;6270244;22;20026;-83
2023/09/12 07:55:00;;;;;;;55.90;38.72;;;19.30;99.90;;;;;;6241126;22;20012;-83
2023/09/12 07:57:25;;;;;;;62.00;39.35;;;19.30;99.90;;;;;;6242075;22;20022;-82
2023/09/12 07:59:51;;;;;;;50.50;36.40;;;19.40;99.90;;;;;;6215379;22;20016;-82
2023/09/12 08:02:16;;;;;;;45.20;33.05;;;19.40;99.90;;;;;;6269591;22;20018;-82
2023/09/12 08:04:42;;;;;;;45.00;32.38;;;19.40;99.90;;;;;;6217151;22;20044;-84
2023/09/12 08:07:08;;;;;;;48.40;34.30;;;19.50;99.90;;;;;;6241922;22;20018;-83
2023/09/12 08:09:52;;;;;;;36.55;27.67;;;19.50;99.90;;;;;;6270761;22;20066;-83
2023/09/12 08:12:19;;;;;;;48.30;34.63;;;19.60;99.90;;;;;;6242210;22;20082;-86
2023/09/12 08:14:45;;;;;;;50.67;35.22;;;19.70;99.90;;;;;;6270636;22;20012;-95
2023/09/12 08:17:12;;;;;;;56.50;37.20;;;19.70;99.90;;;;;;6269948;22;20061;-86
2023/09/12 08:19:38;;;;;;;54.50;36.35;;;19.80;99.90;;;;;;6270287;22;20440;-86
2023/09/12 08:22:05;;;;;;;57.70;39.17;;;19.80;99.90;;;;;;6270571;22;20012;-87
2023/09/12 08:24:31;;;;;;;51.08;36.78;;;19.80;99.90;;;;;;6244619;22;20015;-86
2023/09/12 08:26:57;;;;;;;50.85;36.75;;;19.80;99.90;;;;;;6270010;22;20490;-86
2023/09/12 08:29:22;;;;;;;53.30;35.42;;;19.90;99.90;;;;;;6270852;22;20011;-86
2023/09/12 08:31:48;;;;;;;46.40;34.05;;;19.90;99.90;;;;;;6243773;22;20011;-87
2023/09/12 08:34:14;;;;;;;44.45;31.60;;;19.90;99.90;;;;;;6244090;22;20012;-86
2023/09/12 08:36:39;;;;;;;55.08;38.17;;;19.90;99.90;;;;;;6243888;22;20020;-87
2023/09/12 08:39:08;;;;;;;55.15;37.75;;;19.90;99.90;;;;;;6243396;22;20098;-88
2023/09/12 08:41:34;;;;;;;49.25;34.83;;;20.00;99.90;;;;;;6272042;22;20008;-86
2023/09/12 08:44:01;;;;;;;53.25;36.08;;;20.00;99.90;;;;;;6269004;22;20095;-85
2023/09/12 08:46:27;;;;;;;50.05;35.53;;;20.00;99.90;;;;;;6243391;22;20023;-86
2023/09/12 08:48:55;;;;;;;50.28;36.13;;;20.00;99.90;;;;;;6244862;22;20058;-86
2023/09/12 08:51:26;;;;;;;57.20;38.53;;;19.90;99.90;;;;;;6272319;22;20008;-86
2023/09/12 08:53:52;;;;;;;52.75;35.38;;;19.90;99.90;;;;;;6243980;22;20016;-87
2023/09/12 08:56:21;;;;;;;42.60;31.60;;;20.00;99.90;;;;;;6243972;22;20069;-86
2023/09/12 08:58:47;;;;;;;52.55;37.03;;;20.00;99.90;;;;;;6271918;22;20010;-86
2023/09/12 09:01:13;;;;;;;57.53;39.05;;;20.00;99.90;;;;;;6245379;22;20434;-86
2023/09/12 09:03:42;;;;;;;60.15;39.72;;;20.00;99.90;;;;;;6245538;22;20020;-86
2023/09/12 09:06:11;;;;;;;52.60;35.88;;;20.10;99.90;;;;;;6270827;22;20383;-86
2023/09/12 09:08:40;;;;;;;51.17;35.30;;;20.10;99.90;;;;;;6245339;22;20019;-86
2023/09/12 09:11:06;;;;;;;48.33;34.85;;;20.20;99.90;;;;;;6271754;22;20024;-86
2023/09/12 09:13:35;;;;;;;44.97;32.25;;;20.30;99.90;;;;;;6244622;22;20449;-86
2023/09/12 09:16:19;;;;;;;51.42;36.10;;;20.40;99.90;;;;;;6271227;22;20065;-86
2023/09/12 09:18:55;;;;;;;;;;;20.50;99.90;;;;;;6245417;22;20012;-86
2023/09/12 09:21:27;;;;;;;49.40;35.28;;;20.60;99.90;;;;;;6245278;22;19914;-86
2023/09/12 09:23:54;;;;;;;46.45;32.17;;;20.70;99.90;;;;;;6270673;22;20478;-86
2023/09/12 09:26:20;;;;;;;38.78;29.27;;;20.70;99.90;;;;;;6243389;22;20016;-86
2023/09/12 09:29:00;;;;;;;50.13;33.97;;;20.80;99.90;;;;;;6244791;22;20008;-86
2023/09/12 09:31:26;;;;;;;50.05;35.72;;;20.90;99.90;;;;;;6272451;22;20016;-86
2023/09/12 09:33:52;;;;;;;46.95;33.22;;;20.90;99.90;;;;;;6243637;22;20133;-86
2023/09/12 09:36:17;;;;;;;43.78;31.35;;;21.00;99.90;;;;;;6244472;22;20008;-86
2023/09/12 09:38:43;;;;;;;47.15;32.97;;;21.00;99.90;;;;;;6244603;22;20423;-86
2023/09/12 09:41:09;;;;;;;47.17;32.42;;;21.00;99.90;;;;;;6271567;22;20422;-87
2023/09/12 09:43:35;;;;;;;46.60;32.45;;;21.00;99.90;;;;;;6243346;22;20027;-86
2023/09/12 09:46:02;;;;;;;49.00;32.55;;;21.10;99.90;;;;;;6243879;22;20335;-86
2023/09/12 09:48:28;;;;;;;49.25;33.75;;;21.10;99.90;;;;;;6244856;22;20008;-86
2023/09/12 09:51:02;;;;;;;49.03;35.45;;;21.10;99.90;;;;;;6244356;22;20008;-86
2023/09/12 09:53:34;;;;;;;53.40;35.40;;;21.10;99.90;;;;;;6243535;22;20042;-86
2023/09/12 09:56:15;;;;;;;47.30;34.70;;;21.10;99.90;;;;;;6242313;22;20011;-86
2023/09/12 09:58:48;;;;;;;45.92;32.40;;;21.20;99.90;;;;;;6272210;22;20016;-84
2023/09/12 10:01:19;;;;;;;45.05;33.17;;;21.30;99.90;;;;;;6270912;22;20008;-85
2023/09/12 10:03:49;;;;;;;45.08;31.95;;;21.30;99.90;;;;;;6242735;22;20042;-85
2023/09/12 10:06:17;;;;;;;45.13;31.77;;;21.30;99.90;;;;;;6243540;22;20015;-85
2023/09/12 10:08:52;;;;;;;47.47;32.65;;;21.30;99.90;;;;;;6218419;22;20012;-85
2023/09/12 10:11:22;;;;;;;45.67;33.63;;;21.30;99.90;;;;;;6217837;22;20027;-85
2023/09/12 10:13:53;;;;;;;47.53;32.90;;;21.30;99.90;;;;;;6243768;22;20020;-85
2023/09/12 10:16:24;;;;;;;44.00;32.00;;;21.30;99.90;;;;;;6272264;22;20069;-85
2023/09/12 10:19:13;;;;;;;46.45;31.35;;;21.40;99.90;;;;;;6218847;22;20011;-85
2023/09/12 10:21:48;;;;;;;46.63;33.00;;;21.40;99.90;;;;;;6269541;22;20020;-85
2023/09/12 10:24:14;;;;;;;46.40;33.22;;;21.50;99.90;;;;;;6270232;22;20011;-85
2023/09/12 10:26:44;;;;;;;41.55;29.85;;;21.60;99.90;;;;;;6272064;22;20030;-85
2023/09/12 10:29:14;;;;;;;44.58;30.88;;;21.60;99.90;;;;;;6244343;22;20670;-85
2023/09/12 10:31:40;;;;;;;45.35;31.73;;;21.70;99.90;;;;;;6242968;22;20483;-85
2023/09/12 10:34:09;;;;;;;43.78;31.23;;;21.70;99.90;;;;;;6243006;22;20485;-85
2023/09/12 10:36:38;;;;;;;41.45;30.08;;;21.80;99.90;;;;;;6243087;22;20335;-85
2023/09/12 10:39:05;;;;;;;41.58;29.67;;;22.00;99.90;;;;;;6242329;22;20371;-85
2023/09/12 10:41:31;;;;;;;39.95;29.35;;;22.00;99.90;;;;;;6243998;22;20022;-85
2023/09/12 10:43:59;;;;;;;41.60;29.77;;;22.10;99.90;;;;;;6270694;22;20008;-85
2023/09/12 10:46:24;;;;;;;40.22;29.48;;;22.20;99.90;;;;;;6242946;22;20012;-85
2023/09/12 10:48:51;;;;;;;44.25;30.30;;;22.30;99.90;;;;;;6243899;22;20082;-85
2023/09/12 10:51:17;;;;;;;42.00;30.40;;;22.30;99.90;;;;;;6243778;22;20077;-85
2023/09/12 10:53:53;;;;;;;36.67;27.27;;;22.40;99.90;;;;;;6217179;22;20070;-85
2023/09/12 10:56:20;;;;;;;40.33;28.83;;;22.40;99.90;;;;;;6244003;22;20057;-85
2023/09/12 10:59:04;;;;;;;38.33;28.40;;;22.50;99.90;;;;;;6242555;22;20015;-85
2023/09/12 11:01:34;;;;;;;37.72;27.67;;;22.50;99.90;;;;;;6270619;22;20015;-85
2023/09/12 11:04:18;;;;;;;42.67;28.58;;;22.50;99.90;;;;;;6243719;22;20015;-85
2023/09/12 11:06:44;;;;;;;41.17;28.50;;;22.50;99.90;;;;;;6243650;22;20023;-86
2023/09/12 11:09:24;;;;;;;40.13;29.20;;;22.50;99.90;;;;;;6243045;22;20015;-86
2023/09/12 11:57:58;;;;;;;25.02;19.05;;;24.10;99.90;;;;;;6234739;22;20004;-81
2023/09/12 12:00:26;;;;;;;24.75;18.20;;;24.20;99.90;;;;;;6303804;22;20410;-79
2023/09/12 12:02:53;;;;;;;26.20;18.75;;;24.30;99.90;;;;;;6287080;22;20027;-78
2023/09/12 12:05:19;;;;;;;22.90;18.23;;;24.40;99.90;;;;;;6306111;22;20396;-79
2023/09/12 12:07:46;;;;;;;23.88;18.13;;;24.60;99.90;;;;;;6306265;22;20046;-78
2023/09/12 12:10:13;;;;;;;27.30;21.45;;;24.70;99.90;;;;;;6306188;22;20019;-80
2023/09/12 12:12:38;;;;;;;30.10;21.83;;;24.80;99.90;;;;;;6278724;22;20090;-79
2023/09/12 12:15:11;;;;;;;26.92;20.58;;;24.80;99.90;;;;;;6306500;22;20058;-79
2023/09/12 12:17:37;;;;;;;22.80;17.10;;;24.80;99.90;;;;;;6253271;22;20023;-80
2023/09/12 12:20:07;;;;;;;22.55;16.48;;;24.80;99.90;;;;;;6278934;22;20019;-79
2023/09/12 12:22:33;;;;;;;25.10;17.30;;;24.90;99.90;;;;;;6278812;22;20011;-80
2023/09/12 12:25:06;;;;;;;18.20;14.63;;;24.90;99.90;;;;;;6278521;22;20146;-78
2023/09/12 12:27:31;;;;;;;19.98;14.75;;;24.90;99.90;;;;;;6278231;22;20015;-79
2023/09/12 12:29:57;;;;;;;23.65;17.90;;;24.90;99.90;;;;;;6278295;22;20026;-77
2023/09/12 12:32:23;;;;;;;23.08;17.02;;;24.90;99.90;;;;;;6305846;22;20015;-78
2023/09/12 12:34:49;;;;;;;20.27;16.05;;;24.80;99.90;;;;;;6278449;22;20052;-78
2023/09/12 12:37:15;;;;;;;23.88;16.17;;;24.90;99.90;;;;;;6278211;22;20011;-77
2023/09/12 12:39:43;;;;;;;21.92;16.08;;;25.10;99.90;;;;;;6305585;22;20069;-78
2023/09/12 12:42:09;;;;;;;21.02;15.05;;;25.20;99.90;;;;;;6305383;22;20030;-77
2023/09/12 12:44:40;;;;;;;18.55;13.07;;;25.20;99.90;;;;;;6305547;22;20019;-76
2023/09/12 12:47:08;;;;;;;14.88;10.82;;;25.10;99.90;;;;;;6278381;22;20019;-77
2023/09/12 12:49:40;;;;;;;15.23;11.00;;;25.00;99.90;;;;;;6305605;22;20196;-76
2023/09/12 12:52:09;;;;;;;14.25;9.68;;;24.90;99.90;;;;;;6277956;22;20019;-76
2023/09/12 12:54:36;;;;;;;12.88;9.60;;;24.90;99.90;;;;;;6277740;22;20424;-78
2023/09/12 12:57:02;;;;;;;14.07;10.00;;;24.80;99.90;;;;;;6305786;22;20015;-77
2023/09/12 12:59:29;;;;;;;12.30;9.40;;;24.80;99.90;;;;;;6305391;22;20093;-78
2023/09/12 13:01:55;;;;;;;15.38;10.00;;;24.80;99.90;;;;;;6278042;22;20084;-77
2023/09/12 13:04:23;;;;;;;15.18;10.10;;;24.70;99.90;;;;;;6268302;22;20016;-77
2023/09/12 13:06:49;;;;;;;14.23;9.98;;;24.60;99.90;;;;;;6275162;22;20020;-77
2023/09/12 13:09:16;;;;;;;14.73;10.05;;;24.60;99.90;;;;;;6248620;22;20067;-77
2023/09/12 13:11:42;;;;;;;15.88;10.60;;;24.60;99.90;;;;;;6276806;22;20165;-78
2023/09/12 13:14:11;;;;;;;13.63;10.43;;;24.50;99.90;;;;;;6276382;22;20043;-77